Time;durP1;ratioP1;P1;durP2;ratioP2;P2;SDS_P1;SDS_P2;PMS_P1;PMS_P2;Temp;Humidity;BMP_temperature;BMP_pressure;BME280_temperature;BME280_humidity;BME280_pressure;Samples;Min_cycle;Max_cycle;Signal;HPM_P1;HPM_P2
2023/08/21 00:01:40;;;;;;;4.88;4.22;;;24.50;99.90;;;;;;5027309;28;20351;-86
2023/08/21 00:04:06;;;;;;;6.22;4.47;;;24.50;99.90;;;;;;5026995;28;20052;-82
2023/08/21 00:06:31;;;;;;;6.65;4.47;;;24.50;99.90;;;;;;5010086;28;20030;-83
2023/08/21 00:08:57;;;;;;;9.00;5.20;;;24.40;99.90;;;;;;5009392;28;20045;-82
2023/08/21 00:11:22;;;;;;;6.05;4.68;;;24.40;99.90;;;;;;5009528;28;20018;-82
2023/08/21 00:13:49;;;;;;;5.78;4.45;;;24.40;99.90;;;;;;5008644;28;20092;-83
2023/08/21 00:16:16;;;;;;;8.68;4.47;;;24.40;99.90;;;;;;5009529;28;20030;-83
2023/08/21 00:18:41;;;;;;;5.93;4.40;;;24.40;99.90;;;;;;5026747;28;20022;-82
2023/08/21 00:21:07;;;;;;;8.18;4.70;;;24.40;99.90;;;;;;5026311;28;20029;-82
2023/08/21 00:23:33;;;;;;;5.50;4.22;;;24.40;99.90;;;;;;5009439;28;20097;-82
2023/08/21 00:25:58;;;;;;;9.95;5.10;;;24.40;99.90;;;;;;5008921;28;20093;-83
2023/08/21 00:28:24;;;;;;;5.53;4.70;;;24.30;99.90;;;;;;5009542;28;20037;-82
2023/08/21 00:30:50;;;;;;;5.70;4.85;;;24.30;99.90;;;;;;5026184;28;20079;-83
2023/08/21 00:33:15;;;;;;;8.77;4.93;;;24.30;99.90;;;;;;5020254;28;20030;-82
2023/08/21 00:35:42;;;;;;;10.55;4.47;;;24.30;99.90;;;;;;5015976;28;20030;-82
2023/08/21 00:38:08;;;;;;;6.22;4.63;;;24.30;99.90;;;;;;5015479;28;20037;-85
2023/08/21 00:40:34;;;;;;;7.18;4.63;;;24.30;99.90;;;;;;4998153;28;20062;-85
2023/08/21 00:42:59;;;;;;;6.05;4.90;;;24.30;99.90;;;;;;5015468;28;20040;-85
2023/08/21 00:45:25;;;;;;;6.70;4.70;;;24.20;99.90;;;;;;4998515;28;20120;-85
2023/08/21 00:47:51;;;;;;;7.18;5.50;;;24.30;99.90;;;;;;4997453;28;20463;-85
2023/08/21 00:50:17;;;;;;;7.50;4.97;;;24.20;99.90;;;;;;5015828;28;20036;-85
2023/08/21 00:52:46;;;;;;;7.13;5.22;;;24.20;99.90;;;;;;5015175;28;20030;-85
2023/08/21 00:55:14;;;;;;;6.78;4.70;;;24.20;99.90;;;;;;5014990;28;20029;-85
2023/08/21 00:57:40;;;;;;;7.38;4.90;;;24.20;99.90;;;;;;5015180;28;20026;-86
2023/08/21 01:00:10;;;;;;;9.73;4.75;;;24.10;99.90;;;;;;4997713;28;20026;-87
2023/08/21 01:02:35;;;;;;;7.63;4.88;;;24.10;99.90;;;;;;4997921;28;20467;-87
2023/08/21 01:05:01;;;;;;;7.53;4.72;;;24.10;99.90;;;;;;4997572;28;20041;-87
2023/08/21 01:07:27;;;;;;;7.90;4.95;;;24.10;99.90;;;;;;4998083;28;20034;-87
2023/08/21 01:10:11;;;;;;;6.13;5.28;;;24.10;99.90;;;;;;4997562;28;20030;-85
2023/08/21 01:13:08;;;;;;;10.23;5.15;;;24.10;99.90;;;;;;4997822;28;20022;-84
2023/08/21 01:15:33;;;;;;;6.95;4.90;;;24.00;99.90;;;;;;4998050;28;20030;-85
2023/08/21 01:17:59;;;;;;;6.30;4.65;;;23.90;99.90;;;;;;5014737;28;20036;-85
2023/08/21 01:20:25;;;;;;;7.00;4.50;;;23.90;99.90;;;;;;4997658;28;20026;-85
2023/08/21 01:22:51;;;;;;;6.85;4.90;;;23.90;99.90;;;;;;5014628;28;20105;-86
2023/08/21 01:25:16;;;;;;;7.88;4.80;;;23.90;99.90;;;;;;4997066;28;20025;-85
2023/08/21 01:27:48;;;;;;;6.55;4.53;;;23.90;99.90;;;;;;5014836;28;20113;-85
2023/08/21 01:30:14;;;;;;;;;;;23.90;99.90;;;;;;4997777;28;20022;-85
2023/08/21 01:32:54;;;;;;;7.90;4.60;;;23.80;99.90;;;;;;4997471;28;19916;-85
2023/08/21 01:35:20;;;;;;;7.50;5.03;;;23.70;99.90;;;;;;5014733;28;20509;-85
2023/08/21 01:37:46;;;;;;;9.00;5.20;;;23.70;99.90;;;;;;4997141;28;20121;-84
2023/08/21 01:40:12;;;;;;;6.05;4.60;;;23.70;99.90;;;;;;5014106;28;20053;-85
2023/08/21 01:42:38;;;;;;;6.93;4.90;;;23.80;99.90;;;;;;4997165;28;20030;-85
2023/08/21 01:45:04;;;;;;;9.10;4.90;;;23.80;99.90;;;;;;4996900;28;20034;-85
2023/08/21 01:47:29;;;;;;;9.13;5.00;;;23.70;99.90;;;;;;5014527;28;20506;-85
2023/08/21 01:49:55;;;;;;;8.40;5.15;;;23.50;99.90;;;;;;5014057;28;20026;-85
2023/08/21 01:52:20;;;;;;;7.93;5.20;;;23.50;99.90;;;;;;4996911;28;20032;-85
2023/08/21 01:54:47;;;;;;;6.15;4.82;;;23.50;99.90;;;;;;4997063;28;20387;-85
2023/08/21 01:57:13;;;;;;;8.00;4.97;;;23.40;99.90;;;;;;4996623;28;20022;-85
2023/08/21 01:59:39;;;;;;;8.15;5.15;;;23.50;99.90;;;;;;4997029;28;20021;-85
2023/08/21 02:02:04;;;;;;;8.90;5.20;;;23.50;99.90;;;;;;4996594;28;20420;-85
2023/08/21 02:04:30;;;;;;;8.20;5.05;;;23.50;99.90;;;;;;4997354;28;20037;-85
2023/08/21 02:06:56;;;;;;;8.10;5.40;;;23.40;99.90;;;;;;4996621;28;20030;-85
2023/08/21 02:09:21;;;;;;;10.57;5.22;;;23.30;99.90;;;;;;4997039;28;20029;-84
2023/08/21 02:11:47;;;;;;;7.82;5.20;;;23.30;99.90;;;;;;4996925;28;20075;-85
2023/08/21 02:14:12;;;;;;;9.80;4.90;;;23.30;99.90;;;;;;5013980;28;20041;-84
2023/08/21 02:16:38;;;;;;;9.93;5.30;;;23.30;99.90;;;;;;5014152;28;20018;-85
2023/08/21 02:19:04;;;;;;;7.63;4.60;;;23.30;99.90;;;;;;5013741;28;20073;-85
2023/08/21 02:21:29;;;;;;;7.55;4.75;;;23.30;99.90;;;;;;4997014;28;20026;-84
2023/08/21 02:23:55;;;;;;;5.43;4.57;;;23.30;99.90;;;;;;5014039;28;20034;-85
2023/08/21 02:26:20;;;;;;;8.25;4.90;;;23.30;99.90;;;;;;4996604;28;20057;-85
2023/08/21 02:28:46;;;;;;;6.40;4.60;;;23.30;99.90;;;;;;5014253;28;20482;-85
2023/08/21 02:31:12;;;;;;;7.70;5.10;;;23.30;99.90;;;;;;4996329;28;20026;-85
2023/08/21 02:33:38;;;;;;;9.90;4.72;;;23.20;99.90;;;;;;4996881;28;20085;-84
2023/08/21 02:36:04;;;;;;;7.57;4.70;;;23.30;99.90;;;;;;4996717;28;20489;-86
2023/08/21 02:38:30;;;;;;;5.82;4.45;;;23.30;99.90;;;;;;5000582;28;20025;-85
2023/08/21 02:40:55;;;;;;;6.97;4.95;;;23.30;99.90;;;;;;5017421;28;20050;-85
2023/08/21 02:43:21;;;;;;;7.15;5.40;;;23.30;99.90;;;;;;5000619;28;20022;-85
2023/08/21 02:45:46;;;;;;;10.00;5.25;;;23.20;99.90;;;;;;5017534;28;20108;-85
2023/08/21 02:48:12;;;;;;;8.40;5.20;;;23.20;99.90;;;;;;4999646;28;20034;-85
2023/08/21 02:50:38;;;;;;;7.82;5.00;;;23.20;99.90;;;;;;5000295;28;20080;-85
2023/08/21 02:53:03;;;;;;;8.23;4.97;;;23.20;99.90;;;;;;5016991;28;20026;-86
2023/08/21 02:55:29;;;;;;;7.78;4.95;;;23.20;99.90;;;;;;5017674;28;20116;-85
2023/08/21 02:57:55;;;;;;;7.55;4.85;;;23.20;99.90;;;;;;5017711;28;20021;-85
2023/08/21 03:00:20;;;;;;;7.03;4.72;;;23.20;99.90;;;;;;5000673;28;20093;-85
2023/08/21 03:02:46;;;;;;;6.32;4.38;;;23.30;99.90;;;;;;5000232;28;20120;-85
2023/08/21 03:05:13;;;;;;;7.88;5.03;;;23.30;99.90;;;;;;5017058;28;20033;-85
2023/08/21 03:07:39;;;;;;;8.68;4.90;;;23.30;99.90;;;;;;4999871;28;20084;-85
2023/08/21 03:10:05;;;;;;;7.55;4.50;;;23.20;99.90;;;;;;4999210;28;20030;-85
2023/08/21 03:12:31;;;;;;;10.30;5.22;;;23.20;99.90;;;;;;5000083;28;20026;-85
2023/08/21 03:14:56;;;;;;;7.15;4.53;;;23.10;99.90;;;;;;4999979;28;20471;-88
2023/08/21 03:17:22;;;;;;;8.02;4.78;;;23.10;99.90;;;;;;5018170;28;20030;-85
2023/08/21 03:19:47;;;;;;;7.63;5.07;;;23.10;99.90;;;;;;5000222;28;20030;-85
2023/08/21 03:22:13;;;;;;;6.40;4.78;;;23.10;99.90;;;;;;4999614;28;20080;-85
2023/08/21 03:24:39;;;;;;;8.07;5.00;;;23.00;99.90;;;;;;5017387;28;20160;-85
2023/08/21 03:27:05;;;;;;;6.00;4.82;;;23.00;99.90;;;;;;5016662;28;20030;-85
2023/08/21 03:29:30;;;;;;;6.95;4.95;;;22.90;99.90;;;;;;5016958;28;20029;-85
2023/08/21 03:31:56;;;;;;;8.15;4.88;;;22.90;99.90;;;;;;4999509;28;20022;-83
2023/08/21 03:34:22;;;;;;;7.00;4.85;;;22.80;99.90;;;;;;5016646;28;20351;-84
2023/08/21 03:36:47;;;;;;;8.73;4.97;;;22.80;99.90;;;;;;4999774;28;20080;-84
2023/08/21 03:39:13;;;;;;;6.45;5.03;;;22.80;99.90;;;;;;5016377;28;20129;-84
2023/08/21 03:41:38;;;;;;;5.65;4.60;;;22.70;99.90;;;;;;4999077;28;20057;-85
2023/08/21 03:44:04;;;;;;;7.65;4.90;;;22.70;99.90;;;;;;4999036;28;20032;-83
2023/08/21 03:46:30;;;;;;;6.25;4.80;;;22.70;99.90;;;;;;4999448;28;20048;-85
2023/08/21 03:48:56;;;;;;;9.07;5.35;;;22.60;99.90;;;;;;4998396;28;20434;-84
2023/08/21 03:51:21;;;;;;;5.95;4.82;;;22.60;99.90;;;;;;5016322;28;20033;-84
2023/08/21 03:53:47;;;;;;;9.35;4.97;;;22.50;99.90;;;;;;4999257;28;20052;-84
2023/08/21 03:56:12;;;;;;;7.38;4.78;;;22.60;99.90;;;;;;5016312;28;20061;-84
2023/08/21 03:58:38;;;;;;;7.82;4.70;;;22.60;99.90;;;;;;4999384;28;20029;-85
2023/08/21 04:01:04;;;;;;;7.55;5.35;;;22.60;99.90;;;;;;4998902;28;20463;-85
2023/08/21 04:03:29;;;;;;;8.18;4.60;;;22.50;99.90;;;;;;4999356;28;20120;-84
2023/08/21 04:05:56;;;;;;;6.10;5.07;;;22.40;99.90;;;;;;5016577;28;20033;-84
2023/08/21 04:08:22;;;;;;;6.70;4.72;;;22.40;99.90;;;;;;5016095;28;20487;-84
2023/08/21 04:10:48;;;;;;;6.50;4.65;;;22.40;99.90;;;;;;5016642;28;20026;-85
2023/08/21 04:13:13;;;;;;;8.63;5.00;;;22.40;99.90;;;;;;4998572;28;20026;-85
2023/08/21 04:15:44;;;;;;;7.78;5.13;;;22.50;99.90;;;;;;4999424;28;20029;-85
2023/08/21 04:18:09;;;;;;;5.68;4.78;;;22.50;99.90;;;;;;4998404;28;20034;-85
2023/08/21 04:20:35;;;;;;;10.70;5.00;;;22.40;99.90;;;;;;4998514;28;20028;-85
2023/08/21 04:23:00;;;;;;;8.82;5.18;;;22.40;99.90;;;;;;5015913;28;20030;-88
2023/08/21 04:25:26;;;;;;;6.63;4.90;;;22.40;99.90;;;;;;5015877;28;20075;-85
2023/08/21 04:27:52;;;;;;;8.13;4.93;;;22.30;99.90;;;;;;4998431;28;20029;-85
2023/08/21 04:30:17;;;;;;;8.45;5.28;;;22.40;99.90;;;;;;4998297;28;20026;-84
2023/08/21 04:32:43;;;;;;;8.20;5.75;;;22.40;99.90;;;;;;4998861;28;20467;-85
2023/08/21 04:35:09;;;;;;;7.45;4.82;;;22.40;99.90;;;;;;4998506;28;20032;-85
2023/08/21 04:37:34;;;;;;;10.43;5.28;;;22.40;99.90;;;;;;4998714;28;20371;-85
2023/08/21 04:40:00;;;;;;;7.75;5.32;;;22.40;99.90;;;;;;5015667;28;20058;-84
2023/08/21 04:42:25;;;;;;;9.20;5.28;;;22.50;99.90;;;;;;4997913;28;20030;-84
2023/08/21 04:44:51;;;;;;;8.70;5.28;;;22.50;99.90;;;;;;5015817;28;20502;-84
2023/08/21 04:47:21;;;;;;;7.55;4.93;;;22.50;99.90;;;;;;4997737;28;20034;-83
2023/08/21 04:49:48;;;;;;;7.53;5.30;;;22.50;99.90;;;;;;4997986;28;20030;-85
2023/08/21 04:52:14;;;;;;;7.80;5.45;;;22.50;99.90;;;;;;4997521;28;20061;-85
2023/08/21 04:54:40;;;;;;;8.32;5.20;;;22.50;99.90;;;;;;4998187;28;20033;-84
2023/08/21 04:57:05;;;;;;;7.53;4.97;;;22.50;99.90;;;;;;5014949;28;20030;-84
2023/08/21 04:59:31;;;;;;;8.43;5.53;;;22.50;99.90;;;;;;4997872;28;20454;-84
2023/08/21 05:01:57;;;;;;;8.98;5.47;;;22.60;99.90;;;;;;5015242;28;20033;-85
2023/08/21 05:04:22;;;;;;;7.25;5.20;;;22.50;99.90;;;;;;4997362;28;20114;-85
2023/08/21 05:06:48;;;;;;;8.48;5.15;;;22.50;99.90;;;;;;4997885;28;20388;-84
2023/08/21 05:09:13;;;;;;;6.47;5.15;;;22.50;99.90;;;;;;4997585;28;20109;-85
2023/08/21 05:11:39;;;;;;;6.72;4.95;;;22.50;99.90;;;;;;5014964;28;20030;-85
2023/08/21 05:14:05;;;;;;;7.57;5.25;;;22.50;99.90;;;;;;5014765;28;20028;-86
2023/08/21 05:16:30;;;;;;;6.75;5.55;;;22.50;99.90;;;;;;4997866;28;20128;-85
2023/08/21 05:18:56;;;;;;;8.82;5.10;;;22.60;99.90;;;;;;4997689;28;20467;-84
2023/08/21 05:21:21;;;;;;;9.75;5.10;;;22.60;99.90;;;;;;4997036;28;20025;-85
2023/08/21 05:23:47;;;;;;;7.60;5.20;;;22.60;99.90;;;;;;4997823;28;20076;-84
2023/08/21 05:26:12;;;;;;;9.25;4.80;;;22.70;99.90;;;;;;4996828;28;20030;-85
2023/08/21 05:28:38;;;;;;;6.60;5.03;;;22.70;99.90;;;;;;5014891;28;20482;-85
2023/08/21 05:31:04;;;;;;;9.10;5.10;;;22.80;99.90;;;;;;5015037;28;20091;-85
2023/08/21 05:33:30;;;;;;;7.88;5.60;;;22.80;99.90;;;;;;5014772;28;20410;-85
2023/08/21 05:35:57;;;;;;;9.75;5.40;;;22.80;99.90;;;;;;4982010;28;20101;-86
2023/08/21 05:38:22;;;;;;;12.18;5.55;;;22.90;99.90;;;;;;4972590;28;20026;-85
2023/08/21 05:40:48;;;;;;;9.43;4.93;;;23.00;99.90;;;;;;4986425;28;20042;-85
2023/08/21 05:43:15;;;;;;;7.88;5.38;;;23.10;99.90;;;;;;4993187;28;20023;-85
2023/08/21 05:45:41;;;;;;;7.57;4.97;;;23.10;99.90;;;;;;4994225;28;20023;-85
2023/08/21 05:48:06;;;;;;;11.20;5.72;;;23.10;99.90;;;;;;4994813;28;20045;-85
2023/08/21 05:50:32;;;;;;;8.52;5.22;;;23.20;99.90;;;;;;4994067;28;20068;-85
2023/08/21 05:53:01;;;;;;;10.63;5.47;;;23.20;99.90;;;;;;4995572;28;20131;-85
2023/08/21 05:55:27;;;;;;;7.70;5.05;;;23.20;99.90;;;;;;4993281;28;20034;-85
2023/08/21 05:57:52;;;;;;;9.73;5.30;;;23.30;99.90;;;;;;4994392;28;20061;-85
2023/08/21 06:00:18;;;;;;;12.68;5.35;;;23.30;99.90;;;;;;4993401;28;20363;-85
2023/08/21 06:02:44;;;;;;;9.88;4.90;;;23.30;99.90;;;;;;4995495;28;20494;-85
2023/08/21 06:05:09;;;;;;;9.38;4.78;;;23.40;99.90;;;;;;4994354;28;20081;-85
2023/08/21 06:07:35;;;;;;;7.45;5.15;;;23.40;99.90;;;;;;4995334;28;20019;-85
2023/08/21 06:10:00;;;;;;;9.15;5.57;;;23.40;99.90;;;;;;4993979;28;20023;-85
2023/08/21 06:12:26;;;;;;;12.05;5.80;;;23.50;99.90;;;;;;5000150;28;20504;-85
2023/08/21 06:14:51;;;;;;;7.20;5.32;;;23.40;99.90;;;;;;5001173;28;20029;-85
2023/08/21 06:17:17;;;;;;;8.52;5.78;;;23.50;99.90;;;;;;4999483;28;20033;-85
2023/08/21 06:19:43;;;;;;;9.65;5.28;;;23.50;99.90;;;;;;5000584;28;20121;-82
2023/08/21 06:22:08;;;;;;;7.93;5.25;;;23.50;99.90;;;;;;5001241;28;20379;-83
2023/08/21 06:24:34;;;;;;;7.82;6.13;;;23.60;99.90;;;;;;5000319;28;20026;-85
2023/08/21 06:26:59;;;;;;;7.45;5.40;;;23.60;99.90;;;;;;5001398;28;20084;-85
2023/08/21 06:29:25;;;;;;;8.25;5.55;;;23.60;99.90;;;;;;5000890;28;20030;-85
2023/08/21 06:31:50;;;;;;;7.10;5.60;;;23.70;99.90;;;;;;5000751;28;20022;-85
2023/08/21 06:34:16;;;;;;;8.50;5.90;;;23.70;99.90;;;;;;5000801;28;20018;-85
2023/08/21 06:36:42;;;;;;;11.35;6.60;;;23.70;99.90;;;;;;5001181;28;20034;-85
2023/08/21 06:39:07;;;;;;;11.63;6.00;;;23.80;99.90;;;;;;5001099;28;20105;-85
2023/08/21 06:41:33;;;;;;;9.20;5.75;;;23.80;99.90;;;;;;4999793;28;20132;-85
2023/08/21 06:43:58;;;;;;;8.70;6.15;;;23.80;99.90;;;;;;5000042;28;20080;-85
2023/08/21 06:46:24;;;;;;;9.30;5.78;;;23.90;99.90;;;;;;4999623;28;20038;-85
2023/08/21 06:48:52;;;;;;;10.90;6.35;;;23.90;99.90;;;;;;5001289;28;20128;-85
2023/08/21 06:51:18;;;;;;;10.32;5.80;;;23.90;99.90;;;;;;4999792;28;20025;-85
2023/08/21 06:53:43;;;;;;;9.27;6.90;;;23.90;99.90;;;;;;4999758;28;20023;-85
2023/08/21 06:56:09;;;;;;;7.97;6.00;;;23.90;99.90;;;;;;5000992;28;20038;-85
2023/08/21 06:58:35;;;;;;;9.77;5.90;;;24.00;99.90;;;;;;5001021;28;20109;-85
2023/08/21 07:01:01;;;;;;;10.23;6.28;;;24.00;99.90;;;;;;5000655;28;20451;-90
2023/08/21 07:03:27;;;;;;;11.63;6.53;;;24.00;99.90;;;;;;4999098;28;20034;-84
2023/08/21 07:05:56;;;;;;;8.77;5.80;;;24.00;99.90;;;;;;5008483;28;20433;-81
2023/08/21 07:08:26;;;;;;;13.60;5.97;;;24.00;99.90;;;;;;4998998;28;20038;-80
2023/08/21 07:10:53;;;;;;;10.52;6.28;;;24.10;99.90;;;;;;4999358;28;20594;-82
2023/08/21 07:13:19;;;;;;;13.85;6.13;;;24.10;99.90;;;;;;5004154;28;20086;-82
2023/08/21 07:15:45;;;;;;;15.60;5.60;;;24.20;99.90;;;;;;5007547;28;20502;-81
2023/08/21 07:18:10;;;;;;;10.32;6.35;;;24.10;99.90;;;;;;4999715;28;20045;-81
2023/08/21 07:20:36;;;;;;;12.55;6.38;;;24.20;99.90;;;;;;5000988;28;20030;-81
2023/08/21 07:23:02;;;;;;;11.13;6.15;;;24.20;99.90;;;;;;4996294;28;20436;-81
2023/08/21 07:25:30;;;;;;;11.43;5.97;;;24.30;99.90;;;;;;5006736;28;20042;-82
2023/08/21 07:27:56;;;;;;;8.23;5.63;;;24.30;99.90;;;;;;4998293;28;20029;-82
2023/08/21 07:30:24;;;;;;;9.57;5.85;;;24.30;99.90;;;;;;4994117;28;20030;-82
2023/08/21 07:32:50;;;;;;;10.93;5.97;;;24.40;99.90;;;;;;4996198;28;20475;-82
2023/08/21 07:35:15;;;;;;;8.05;5.65;;;24.50;99.90;;;;;;5004165;28;20101;-81
2023/08/21 07:37:45;;;;;;;9.30;6.15;;;24.50;99.90;;;;;;4996391;28;20034;-82
2023/08/21 07:40:11;;;;;;;8.00;5.88;;;24.50;99.90;;;;;;5005400;28;20058;-81
2023/08/21 07:42:37;;;;;;;8.95;5.72;;;24.50;99.90;;;;;;4994837;28;20030;-82
2023/08/21 07:45:03;;;;;;;8.85;5.88;;;24.50;99.90;;;;;;4996607;28;20080;-81
2023/08/21 07:47:28;;;;;;;8.25;5.55;;;24.60;99.90;;;;;;5004642;28;20104;-82
2023/08/21 07:49:54;;;;;;;14.13;6.28;;;24.60;99.90;;;;;;4996673;28;20057;-82
2023/08/21 07:52:20;;;;;;;9.77;6.20;;;24.60;99.90;;;;;;5006674;28;20029;-82
2023/08/21 07:54:46;;;;;;;10.00;6.35;;;24.70;99.90;;;;;;4996762;28;20364;-82
2023/08/21 07:57:13;;;;;;;10.65;6.10;;;24.70;99.90;;;;;;4995928;28;20027;-81
2023/08/21 07:59:39;;;;;;;12.25;6.00;;;24.70;99.90;;;;;;5006591;28;20033;-86
2023/08/21 08:02:05;;;;;;;8.95;5.97;;;24.70;99.90;;;;;;4995257;28;20438;-85
2023/08/21 08:04:31;;;;;;;7.35;5.55;;;24.80;99.90;;;;;;4996063;28;20513;-84
2023/08/21 08:06:56;;;;;;;11.60;6.60;;;24.80;99.90;;;;;;5003222;28;20030;-87
2023/08/21 08:09:22;;;;;;;9.38;6.15;;;24.80;99.90;;;;;;5002852;28;20387;-86
2023/08/21 08:11:47;;;;;;;10.10;6.25;;;24.90;99.90;;;;;;5004561;28;20066;-87
2023/08/21 08:14:13;;;;;;;8.43;5.82;;;24.90;99.90;;;;;;4996184;28;20109;-88
2023/08/21 08:16:38;;;;;;;8.43;5.88;;;24.90;99.90;;;;;;5003243;28;20027;-87
2023/08/21 08:19:04;;;;;;;10.18;5.65;;;24.90;99.90;;;;;;4996149;28;20033;-89
2023/08/21 08:21:29;;;;;;;12.48;6.00;;;25.00;99.90;;;;;;4995038;28;20026;-88
2023/08/21 08:23:56;;;;;;;8.23;5.80;;;25.10;99.90;;;;;;5004697;28;20467;-89
2023/08/21 08:26:22;;;;;;;10.68;5.80;;;25.10;99.90;;;;;;4993752;28;20088;-88
2023/08/21 08:28:47;;;;;;;9.98;6.00;;;25.10;99.90;;;;;;5004571;28;20022;-89
2023/08/21 08:31:17;;;;;;;11.55;6.25;;;25.10;99.90;;;;;;5003977;28;20027;-89
2023/08/21 08:33:43;;;;;;;10.48;6.00;;;25.20;99.90;;;;;;5003373;28;20037;-88
2023/08/21 08:36:09;;;;;;;10.10;5.88;;;25.20;99.90;;;;;;4992978;28;20026;-89
2023/08/21 08:38:34;;;;;;;8.35;5.95;;;25.20;99.90;;;;;;5005158;28;20101;-87
2023/08/21 08:41:03;;;;;;;10.35;6.32;;;25.20;99.90;;;;;;4994766;28;20525;-90
2023/08/21 08:43:30;;;;;;;8.57;6.10;;;25.30;99.90;;;;;;4994565;28;20440;-87
2023/08/21 08:45:58;;;;;;;8.25;5.80;;;25.30;99.90;;;;;;5000998;28;20084;-88
2023/08/21 08:48:24;;;;;;;13.18;5.97;;;25.40;99.90;;;;;;5007630;28;20061;-87
2023/08/21 08:50:51;;;;;;;9.88;5.95;;;25.40;99.90;;;;;;4997331;28;20064;-88
2023/08/21 08:53:18;;;;;;;9.82;6.15;;;25.50;99.90;;;;;;4997977;28;20030;-86
2023/08/21 08:55:44;;;;;;;8.05;5.90;;;25.50;99.90;;;;;;4994213;28;20535;-87
2023/08/21 08:58:10;;;;;;;7.32;5.80;;;25.50;99.90;;;;;;4997551;28;20049;-87
2023/08/21 09:00:36;;;;;;;9.77;5.57;;;25.60;99.90;;;;;;4997226;28;20459;-89
2023/08/21 09:03:02;;;;;;;10.40;6.43;;;25.60;99.90;;;;;;4994368;28;20187;-88
2023/08/21 09:05:28;;;;;;;11.00;5.70;;;25.70;99.90;;;;;;4995039;28;20041;-88
2023/08/21 09:08:11;;;;;;;8.75;5.93;;;25.70;99.90;;;;;;4996103;28;20022;-87
2023/08/21 09:10:38;;;;;;;9.38;5.53;;;25.70;99.90;;;;;;5000687;28;20496;-87
2023/08/21 09:13:19;;;;;;;10.30;6.15;;;25.70;99.90;;;;;;4998781;28;20113;-89
2023/08/21 09:15:52;;;;;;;11.65;6.18;;;25.90;99.90;;;;;;4996589;28;20030;-90
2023/08/21 09:18:18;;;;;;;9.05;5.70;;;25.80;99.90;;;;;;4997746;28;20026;-85
2023/08/21 09:20:44;;;;;;;8.35;5.30;;;25.80;99.90;;;;;;5006979;28;20423;-90
2023/08/21 09:23:14;;;;;;;11.15;5.80;;;25.90;99.90;;;;;;5011887;28;20026;-88
2023/08/21 09:25:40;;;;;;;10.65;5.38;;;25.80;99.90;;;;;;4994628;28;20479;-90
2023/08/21 09:28:09;;;;;;;8.32;5.47;;;25.90;99.90;;;;;;4993837;28;20138;-92
2023/08/21 09:31:04;;;;;;;10.00;5.20;;;25.90;99.90;;;;;;4996643;28;20053;-91
2023/08/21 09:33:29;;;;;;;6.95;5.03;;;26.00;99.90;;;;;;4987292;28;20058;-88
2023/08/21 09:35:55;;;;;;;7.45;5.30;;;26.10;99.90;;;;;;5002130;28;20034;-87
2023/08/21 09:38:21;;;;;;;7.68;5.07;;;26.10;99.90;;;;;;4994425;28;20463;-86
2023/08/21 09:40:52;;;;;;;9.77;5.13;;;26.20;99.90;;;;;;4994011;28;20484;-87
2023/08/21 09:43:19;;;;;;;8.93;5.50;;;26.20;99.90;;;;;;5007512;28;20030;-88
2023/08/21 09:45:52;;;;;;;9.98;5.97;;;26.20;99.90;;;;;;4996216;28;20069;-88
2023/08/21 09:48:19;;;;;;;11.38;5.15;;;26.20;99.90;;;;;;4983209;28;20062;-88
2023/08/21 09:50:46;;;;;;;9.75;5.35;;;26.20;99.90;;;;;;5001471;28;20034;-90
2023/08/21 09:53:12;;;;;;;8.13;5.30;;;26.30;99.90;;;;;;4996572;28;20022;-87
2023/08/21 09:55:39;;;;;;;6.85;4.85;;;26.30;99.90;;;;;;4993297;28;20407;-88
2023/08/21 09:58:06;;;;;;;7.15;5.00;;;26.30;99.90;;;;;;4996341;28;20116;-88
2023/08/21 10:00:38;;;;;;;7.05;4.88;;;26.40;99.90;;;;;;4996456;28;20116;-87
2023/08/21 10:03:08;;;;;;;8.30;5.35;;;26.40;99.90;;;;;;4989825;28;20030;-88
2023/08/21 10:05:36;;;;;;;10.35;6.15;;;26.50;99.90;;;;;;4987416;28;20148;-88
2023/08/21 10:08:03;;;;;;;8.00;5.20;;;26.50;99.90;;;;;;4998407;28;20030;-88
2023/08/21 10:10:35;;;;;;;7.57;4.45;;;26.50;99.90;;;;;;4992979;28;20037;-88
2023/08/21 10:13:03;;;;;;;5.82;4.57;;;26.50;99.90;;;;;;4994115;28;20022;-90
2023/08/21 10:15:29;;;;;;;7.55;4.25;;;26.60;99.90;;;;;;5001064;28;20062;-90
2023/08/21 10:17:56;;;;;;;6.13;4.38;;;26.70;99.90;;;;;;4992906;28;20026;-88
2023/08/21 10:20:24;;;;;;;6.38;4.40;;;26.70;99.90;;;;;;4994514;28;20064;-88
2023/08/21 10:22:56;;;;;;;6.57;4.30;;;26.80;99.90;;;;;;4996694;28;20041;-89
2023/08/21 10:25:25;;;;;;;8.65;4.35;;;26.90;99.90;;;;;;4994031;28;20034;-88
2023/08/21 10:28:02;;;;;;;8.95;5.55;;;27.00;99.90;;;;;;4997276;28;20166;-88
2023/08/21 10:30:29;;;;;;;12.68;8.15;;;27.00;99.90;;;;;;4995197;28;20026;-89
2023/08/21 10:32:57;;;;;;;6.85;5.18;;;27.20;99.90;;;;;;4999629;28;20030;-89
2023/08/21 10:35:31;;;;;;;6.82;4.70;;;27.20;99.90;;;;;;5008407;28;20037;-84
2023/08/21 10:38:16;;;;;;;5.97;4.25;;;27.20;99.90;;;;;;5001273;28;20026;-89
2023/08/21 10:41:10;;;;;;;5.38;4.25;;;27.30;99.90;;;;;;4998089;28;20050;-86
2023/08/21 10:43:44;;;;;;;5.90;4.32;;;27.40;99.90;;;;;;5006494;28;20038;-88
2023/08/21 10:46:11;;;;;;;5.53;4.00;;;27.40;99.90;;;;;;4996967;28;20176;-88
2023/08/21 10:48:38;;;;;;;8.57;4.40;;;27.40;99.90;;;;;;4997821;28;20156;-85
2023/08/21 10:51:08;;;;;;;9.30;4.55;;;27.40;99.90;;;;;;4997196;28;20076;-87
2023/08/21 10:53:35;;;;;;;6.45;4.35;;;27.50;99.90;;;;;;4995584;28;20097;-86
2023/08/21 10:56:05;;;;;;;8.07;4.13;;;27.60;99.90;;;;;;4997340;28;20040;-87
2023/08/21 10:58:43;;;;;;;6.13;4.50;;;27.70;99.90;;;;;;5005241;28;20455;-87
2023/08/21 11:01:09;;;;;;;6.32;4.40;;;27.80;99.90;;;;;;5003807;28;20023;-86
2023/08/21 11:03:39;;;;;;;8.93;4.75;;;27.80;99.90;;;;;;5000869;28;20081;-87
2023/08/21 11:06:07;;;;;;;6.28;4.38;;;27.80;99.90;;;;;;5000347;28;20038;-86
2023/08/21 11:08:34;;;;;;;6.15;4.22;;;27.80;99.90;;;;;;5010545;28;20045;-87
2023/08/21 11:11:00;;;;;;;5.72;4.13;;;27.80;99.90;;;;;;5013088;28;20029;-87
2023/08/21 11:13:26;;;;;;;7.82;4.80;;;27.90;99.90;;;;;;5002217;28;20112;-87
2023/08/21 11:15:59;;;;;;;5.57;4.03;;;27.90;99.90;;;;;;5011150;28;20081;-87
2023/08/21 11:18:34;;;;;;;6.55;4.20;;;27.90;99.90;;;;;;5002050;28;20030;-85
2023/08/21 11:21:08;;;;;;;7.10;4.57;;;28.10;99.90;;;;;;4998342;28;20050;-86
2023/08/21 11:23:39;;;;;;;11.13;4.70;;;28.10;99.90;;;;;;5000241;28;20034;-88
2023/08/21 11:26:06;;;;;;;6.13;4.25;;;28.10;99.90;;;;;;5000455;28;20041;-86
2023/08/21 11:28:31;;;;;;;6.32;4.53;;;28.10;99.90;;;;;;5008008;28;20026;-86
2023/08/21 11:30:59;;;;;;;8.25;4.63;;;28.20;99.90;;;;;;4995850;28;20036;-86
2023/08/21 11:33:26;;;;;;;4.70;3.58;;;28.30;99.90;;;;;;4997607;28;20128;-86
2023/08/21 11:35:57;;;;;;;8.65;4.60;;;28.40;99.90;;;;;;4996891;28;20474;-86
2023/08/21 11:38:25;;;;;;;7.30;4.55;;;28.50;99.90;;;;;;5007193;28;20065;-83
2023/08/21 11:41:04;;;;;;;7.15;4.40;;;28.60;99.90;;;;;;4996799;28;20399;-86
2023/08/21 11:43:39;;;;;;;6.68;4.03;;;28.60;99.90;;;;;;5005952;28;20077;-85
2023/08/21 11:46:06;;;;;;;6.40;4.20;;;28.70;99.90;;;;;;4996670;28;20053;-84
2023/08/21 11:48:32;;;;;;;8.07;4.85;;;28.70;99.90;;;;;;4996779;28;20586;-84
2023/08/21 11:50:58;;;;;;;10.43;4.70;;;28.80;99.90;;;;;;5004559;28;20133;-85
2023/08/21 11:53:51;;;;;;;6.70;4.13;;;28.80;99.90;;;;;;4997829;28;20471;-86
2023/08/21 11:56:17;;;;;;;6.50;4.10;;;28.80;99.90;;;;;;5004288;28;20092;-85
2023/08/21 11:58:45;;;;;;;10.70;5.25;;;28.90;99.90;;;;;;4994553;28;20027;-83
2023/08/21 12:01:16;;;;;;;8.13;3.92;;;29.00;99.90;;;;;;4996347;28;20034;-84
2023/08/21 12:03:41;;;;;;;6.28;3.65;;;29.10;99.90;;;;;;4996028;28;20092;-85
2023/08/21 12:06:11;;;;;;;7.97;3.92;;;29.10;99.90;;;;;;4995975;28;20038;-85
2023/08/21 12:08:38;;;;;;;6.95;3.95;;;29.30;99.90;;;;;;4995155;28;20081;-86
2023/08/21 12:11:05;;;;;;;8.57;4.82;;;29.40;99.90;;;;;;4997151;28;20113;-85
2023/08/21 12:13:31;;;;;;;7.20;4.10;;;29.40;99.90;;;;;;4993425;28;20022;-86
2023/08/21 12:15:56;;;;;;;8.82;4.00;;;29.50;99.90;;;;;;4997050;28;20122;-86
2023/08/21 12:18:22;;;;;;;9.40;4.75;;;29.50;99.90;;;;;;4998695;28;20041;-87
2023/08/21 12:20:48;;;;;;;9.35;5.18;;;29.50;99.90;;;;;;4995916;28;20026;-86
2023/08/21 12:23:13;;;;;;;9.63;4.47;;;29.50;99.90;;;;;;4997385;28;20042;-86
2023/08/21 12:25:40;;;;;;;8.13;4.25;;;29.50;99.90;;;;;;4996555;28;20039;-87
2023/08/21 12:28:06;;;;;;;6.88;3.80;;;29.60;99.90;;;;;;5004819;28;20033;-86
2023/08/21 12:30:31;;;;;;;9.63;4.60;;;29.70;99.90;;;;;;4997476;28;20026;-85
2023/08/21 12:32:57;;;;;;;6.68;4.13;;;29.70;99.90;;;;;;5004814;28;20034;-85
2023/08/21 12:35:23;;;;;;;8.80;4.30;;;29.80;99.90;;;;;;4998862;28;20054;-86
2023/08/21 12:37:48;;;;;;;6.00;4.15;;;29.90;99.90;;;;;;5000359;28;20348;-87
2023/08/21 12:40:14;;;;;;;5.93;4.45;;;29.90;99.90;;;;;;4999399;28;20452;-87
2023/08/21 12:42:40;;;;;;;10.40;4.30;;;29.90;99.90;;;;;;4997079;28;20045;-86
2023/08/21 12:45:06;;;;;;;7.68;4.07;;;29.90;99.90;;;;;;4999128;28;20037;-88